Time;durP1;ratioP1;P1;durP2;ratioP2;P2;SDS_P1;SDS_P2;PMS_P1;PMS_P2;Temp;Humidity;BMP_temperature;BMP_pressure;BME280_temperature;BME280_humidity;BME280_pressure;Samples;Min_cycle;Max_cycle;Signal;HPM_P1;HPM_P2
2022/11/15 00:01:10;;;;;;;10.65;5.93;;;8.20;99.90;;;;;;5059915;28;20017;-71
2022/11/15 00:03:37;;;;;;;14.07;6.63;;;8.30;99.90;;;;;;5059353;28;20056;-71
2022/11/15 00:06:05;;;;;;;12.27;6.15;;;8.30;99.90;;;;;;5059310;28;20036;-71
2022/11/15 00:08:33;;;;;;;15.02;6.60;;;8.30;99.90;;;;;;5059629;28;20382;-71
2022/11/15 00:11:02;;;;;;;14.50;6.88;;;8.40;99.90;;;;;;5059204;28;20036;-71
2022/11/15 00:13:30;;;;;;;11.27;6.18;;;8.40;99.90;;;;;;5059851;28;20025;-71
2022/11/15 00:15:59;;;;;;;13.93;6.70;;;8.50;99.90;;;;;;5059679;28;20020;-71
2022/11/15 00:18:27;;;;;;;12.30;6.75;;;8.60;99.90;;;;;;5059177;28;20031;-71
2022/11/15 00:20:54;;;;;;;12.82;6.60;;;8.70;99.90;;;;;;5041327;28;20017;-71
2022/11/15 00:23:22;;;;;;;17.00;6.82;;;8.70;99.90;;;;;;5059713;28;20029;-71
2022/11/15 00:25:57;;;;;;;14.85;8.07;;;8.80;99.90;;;;;;5059035;28;20508;-71
2022/11/15 00:28:25;;;;;;;12.02;6.88;;;8.80;99.90;;;;;;5058926;28;20017;-71
2022/11/15 00:30:52;;;;;;;17.08;6.85;;;8.90;99.90;;;;;;5041139;28;20032;-71
2022/11/15 00:33:19;;;;;;;11.32;6.95;;;8.90;99.90;;;;;;5058821;28;20028;-71
2022/11/15 00:35:47;;;;;;;13.70;7.57;;;8.90;99.90;;;;;;5041073;28;20094;-71
2022/11/15 00:38:14;;;;;;;12.90;6.88;;;8.90;99.90;;;;;;5058741;28;20021;-71
2022/11/15 00:40:42;;;;;;;12.57;6.88;;;9.00;99.90;;;;;;5059201;28;20017;-71
2022/11/15 00:43:09;;;;;;;11.68;7.00;;;9.10;99.90;;;;;;5040911;28;20027;-71
2022/11/15 00:45:36;;;;;;;14.48;7.18;;;9.20;99.90;;;;;;5059102;28;20099;-71
2022/11/15 00:48:04;;;;;;;10.45;6.18;;;9.20;99.90;;;;;;5058632;28;20029;-71
2022/11/15 00:50:31;;;;;;;12.88;6.88;;;9.20;99.90;;;;;;5040816;28;20070;-71
2022/11/15 00:52:58;;;;;;;16.17;6.30;;;9.20;99.90;;;;;;5058216;28;20068;-71
2022/11/15 00:55:25;;;;;;;14.90;7.80;;;9.30;99.90;;;;;;5040677;28;20021;-71
2022/11/15 00:57:53;;;;;;;14.70;7.30;;;9.30;99.90;;;;;;5058598;28;20437;-71
2022/11/15 01:00:20;;;;;;;12.65;7.57;;;9.30;99.90;;;;;;5058841;28;20025;-71
2022/11/15 01:02:48;;;;;;;13.10;6.75;;;9.30;99.90;;;;;;5058369;28;20029;-71
2022/11/15 01:05:15;;;;;;;16.33;7.68;;;9.30;99.90;;;;;;5058795;28;20383;-71
2022/11/15 01:07:43;;;;;;;13.35;7.20;;;9.40;99.90;;;;;;5058801;28;20025;-71
2022/11/15 01:10:11;;;;;;;14.10;8.70;;;9.40;99.90;;;;;;5058145;28;20155;-71
2022/11/15 01:12:39;;;;;;;14.70;7.75;;;9.50;99.90;;;;;;5058711;28;20021;-71
2022/11/15 01:15:07;;;;;;;15.02;6.97;;;9.50;99.90;;;;;;5057996;28;20108;-71
2022/11/15 01:17:34;;;;;;;12.70;6.88;;;9.50;99.90;;;;;;5058511;28;20067;-71
2022/11/15 01:20:01;;;;;;;18.42;8.70;;;9.50;99.90;;;;;;5057922;28;20017;-71
2022/11/15 01:22:29;;;;;;;14.35;8.48;;;9.50;99.90;;;;;;5058636;28;20025;-71
2022/11/15 01:24:56;;;;;;;16.08;7.50;;;9.50;99.90;;;;;;5040073;28;20128;-71
2022/11/15 01:27:24;;;;;;;13.35;7.65;;;9.50;99.90;;;;;;5057789;28;20025;-71
2022/11/15 01:29:51;;;;;;;11.55;7.45;;;9.50;99.90;;;;;;5040030;28;20337;-71
2022/11/15 01:32:19;;;;;;;14.43;7.03;;;9.60;99.90;;;;;;5057607;28;20329;-71
2022/11/15 01:34:46;;;;;;;13.50;7.82;;;9.60;99.90;;;;;;5058172;28;20401;-72
2022/11/15 01:37:14;;;;;;;18.55;7.85;;;9.60;99.90;;;;;;5056761;28;20032;-71
2022/11/15 01:39:41;;;;;;;18.00;8.68;;;9.70;99.90;;;;;;5058153;28;20070;-71
2022/11/15 01:42:14;;;;;;;20.35;7.63;;;9.70;99.90;;;;;;5057996;28;20031;-71
2022/11/15 01:44:47;;;;;;;13.15;7.43;;;9.70;99.90;;;;;;5058157;28;20025;-71
2022/11/15 01:47:41;;;;;;;19.52;8.75;;;9.80;99.90;;;;;;5057138;28;20028;-71
2022/11/15 01:50:24;;;;;;;15.02;7.63;;;9.90;99.90;;;;;;5039678;28;20049;-71
2022/11/15 01:52:52;;;;;;;13.57;7.72;;;9.90;99.90;;;;;;5057354;28;20428;-71
2022/11/15 01:55:27;;;;;;;15.30;7.43;;;10.00;99.90;;;;;;5057780;28;20025;-71
2022/11/15 01:58:01;;;;;;;12.43;7.55;;;10.00;99.90;;;;;;5057533;28;20401;-71
2022/11/15 02:00:29;;;;;;;13.45;6.95;;;10.00;99.90;;;;;;5039480;28;20032;-71
2022/11/15 02:02:57;;;;;;;15.27;7.50;;;10.00;99.90;;;;;;5057015;28;20055;-71
2022/11/15 02:05:25;;;;;;;13.00;7.43;;;10.10;99.90;;;;;;5057072;28;20029;-71
2022/11/15 02:07:52;;;;;;;14.90;7.25;;;10.10;99.90;;;;;;5039295;28;20025;-71
2022/11/15 02:10:22;;;;;;;14.25;7.70;;;10.10;99.90;;;;;;5039274;28;20120;-71
2022/11/15 02:12:51;;;;;;;23.05;8.05;;;10.00;99.90;;;;;;5056899;28;20100;-71
2022/11/15 02:15:18;;;;;;;12.20;6.70;;;10.00;99.90;;;;;;5056888;28;20344;-71
2022/11/15 02:18:24;;;;;;;13.27;7.43;;;10.00;99.90;;;;;;5057516;28;20013;-71
2022/11/15 02:21:23;;;;;;;16.55;7.85;;;9.90;99.90;;;;;;5056845;28;20340;-71
2022/11/15 02:24:16;;;;;;;13.95;7.30;;;9.80;99.90;;;;;;5056697;28;20124;-71
2022/11/15 02:27:05;;;;;;;15.43;8.70;;;9.70;99.90;;;;;;5056751;28;20051;-71
2022/11/15 02:30:08;;;;;;;13.95;8.15;;;9.70;99.90;;;;;;5057418;28;20024;-71
2022/11/15 02:32:49;;;;;;;14.57;7.80;;;9.70;99.90;;;;;;5038881;28;20033;-71
2022/11/15 02:35:30;;;;;;;13.52;8.02;;;9.70;99.90;;;;;;5056559;28;20478;-71
2022/11/15 02:38:08;;;;;;;16.05;9.25;;;9.60;99.90;;;;;;5056679;28;20028;-71
2022/11/15 02:40:54;;;;;;;16.50;9.02;;;9.70;99.90;;;;;;5056556;28;20021;-71
2022/11/15 02:43:56;;;;;;;18.70;8.85;;;9.70;99.90;;;;;;5038884;28;20029;-71
2022/11/15 02:49:47;;;;;;;16.42;9.65;;;9.80;99.90;;;;;;5056643;28;20055;-71
2022/11/15 02:52:18;;;;;;;17.60;8.20;;;9.90;99.90;;;;;;5056285;28;20048;-71
2022/11/15 02:54:56;;;;;;;24.35;9.23;;;9.90;99.90;;;;;;5056413;28;20022;-71
2022/11/15 02:57:45;;;;;;;16.17;8.35;;;10.00;99.90;;;;;;5057116;28;20013;-71
2022/11/15 03:00:20;;;;;;;21.13;8.40;;;10.00;99.90;;;;;;5038631;28;20024;-71
2022/11/15 03:03:02;;;;;;;14.95;8.80;;;10.10;99.90;;;;;;5056339;28;20325;-71
2022/11/15 03:05:39;;;;;;;14.52;8.82;;;10.10;99.90;;;;;;5056881;28;20025;-71
2022/11/15 03:08:34;;;;;;;14.43;8.00;;;10.10;99.90;;;;;;5057023;28;20025;-71
2022/11/15 03:11:05;;;;;;;15.38;8.38;;;10.10;99.90;;;;;;5056552;28;20092;-71
2022/11/15 03:13:58;;;;;;;12.80;7.93;;;10.20;99.90;;;;;;5038513;28;20025;-71
2022/11/15 03:16:48;;;;;;;12.40;7.60;;;10.30;99.90;;;;;;5056491;28;20110;-71
2022/11/15 03:19:30;;;;;;;15.55;7.43;;;10.30;99.90;;;;;;5056633;28;20048;-71
2022/11/15 03:22:04;;;;;;;15.23;7.28;;;10.30;99.90;;;;;;5056681;28;20021;-71
2022/11/15 03:24:35;;;;;;;14.30;7.65;;;10.30;99.90;;;;;;5056417;28;20104;-71
2022/11/15 03:27:07;;;;;;;15.35;8.07;;;10.40;99.90;;;;;;5038399;28;20116;-71
2022/11/15 03:29:38;;;;;;;13.80;6.95;;;10.40;99.90;;;;;;5056769;28;20166;-71
2022/11/15 03:32:21;;;;;;;10.68;6.85;;;10.40;99.90;;;;;;5055927;28;20036;-71
2022/11/15 03:34:59;;;;;;;10.50;6.55;;;10.40;99.90;;;;;;5056024;28;20021;-71
2022/11/15 03:37:36;;;;;;;15.55;7.22;;;10.40;99.90;;;;;;5056197;28;20448;-71
2022/11/15 03:40:05;;;;;;;12.75;7.03;;;10.30;99.90;;;;;;5056522;28;20314;-71
2022/11/15 03:42:45;;;;;;;12.95;6.95;;;10.30;99.90;;;;;;5056013;28;20021;-71
2022/11/15 03:45:24;;;;;;;14.10;7.30;;;10.20;99.90;;;;;;5056467;28;20025;-71
2022/11/15 03:48:03;;;;;;;13.02;6.22;;;10.10;99.90;;;;;;5056035;28;20021;-71
2022/11/15 03:50:30;;;;;;;12.75;7.68;;;10.10;99.90;;;;;;5056186;28;20048;-71
2022/11/15 03:52:59;;;;;;;13.13;7.88;;;10.00;99.90;;;;;;5057920;28;20045;-71
2022/11/15 03:55:26;;;;;;;10.57;7.20;;;9.90;99.90;;;;;;5056383;28;20033;-71
2022/11/15 03:57:59;;;;;;;10.13;6.80;;;9.90;99.90;;;;;;5056542;28;20095;-71
2022/11/15 04:00:27;;;;;;;11.63;6.45;;;9.80;99.90;;;;;;5058160;28;20031;-71
2022/11/15 04:02:54;;;;;;;12.10;6.40;;;9.70;99.90;;;;;;5059412;28;20021;-71
2022/11/15 04:05:22;;;;;;;11.85;7.18;;;9.60;99.90;;;;;;5059376;28;20029;-71
2022/11/15 04:07:49;;;;;;;14.13;7.25;;;9.50;99.90;;;;;;5059787;28;20025;-71
2022/11/15 04:10:17;;;;;;;26.15;10.13;;;9.50;99.90;;;;;;5059541;28;20103;-71
2022/11/15 04:12:47;;;;;;;32.13;12.75;;;9.50;99.90;;;;;;5059461;28;20021;-71
2022/11/15 04:15:23;;;;;;;18.52;8.27;;;9.50;99.90;;;;;;5060007;28;20095;-71
2022/11/15 04:17:55;;;;;;;13.95;6.93;;;9.40;99.90;;;;;;5059376;28;20017;-71
2022/11/15 04:26:17;;;;;;;14.77;6.88;;;9.30;99.90;;;;;;5059522;28;20117;-71
2022/11/15 04:31:30;;;;;;;12.98;6.95;;;9.30;99.90;;;;;;5059079;28;20032;-71
2022/11/15 04:33:57;;;;;;;13.70;5.82;;;9.30;99.90;;;;;;5041853;28;20028;-71
2022/11/15 04:39:10;;;;;;;11.15;5.75;;;9.30;99.90;;;;;;5059087;28;20351;-71
2022/11/15 04:41:37;;;;;;;10.75;6.32;;;9.30;99.90;;;;;;5059257;28;20027;-71
2022/11/15 04:44:05;;;;;;;17.05;6.85;;;9.30;99.90;;;;;;5059128;28;20103;-71
2022/11/15 04:46:32;;;;;;;9.50;5.90;;;9.40;99.90;;;;;;5058538;28;20045;-71
2022/11/15 04:48:59;;;;;;;11.70;5.68;;;9.40;99.90;;;;;;5058599;28;20384;-71
2022/11/15 04:51:26;;;;;;;10.57;5.93;;;9.50;99.90;;;;;;5059014;28;20083;-71
2022/11/15 04:53:54;;;;;;;11.35;6.00;;;9.50;99.90;;;;;;5058637;28;20060;-71
2022/11/15 04:56:21;;;;;;;9.45;4.88;;;9.60;99.90;;;;;;5058988;28;20025;-71
2022/11/15 04:58:51;;;;;;;12.00;5.28;;;9.60;99.90;;;;;;5058410;28;20104;-71
2022/11/15 05:01:18;;;;;;;6.97;4.90;;;9.70;99.90;;;;;;5058887;28;20017;-71
2022/11/15 05:06:31;;;;;;;8.75;4.97;;;9.90;99.90;;;;;;5058525;28;20050;-71
2022/11/15 05:08:59;;;;;;;8.05;4.75;;;10.00;99.90;;;;;;5058496;28;20359;-71
2022/11/15 05:11:30;;;;;;;8.73;5.05;;;10.00;99.90;;;;;;5058127;28;20024;-71
2022/11/15 05:13:57;;;;;;;10.75;5.90;;;10.20;99.90;;;;;;5058272;28;20480;-71
2022/11/15 05:16:25;;;;;;;8.50;3.75;;;10.30;99.90;;;;;;5040347;28;20025;-71
2022/11/15 05:18:54;;;;;;;10.23;4.25;;;10.30;99.90;;;;;;5057866;28;20021;-71
2022/11/15 05:21:22;;;;;;;8.73;4.40;;;10.40;99.90;;;;;;5058456;28;20027;-71
2022/11/15 05:23:49;;;;;;;6.60;4.00;;;10.50;99.90;;;;;;5057872;28;20021;-71
2022/11/15 05:26:17;;;;;;;10.43;5.00;;;10.50;99.90;;;;;;5058501;28;20029;-71
2022/11/15 05:28:45;;;;;;;7.47;4.53;;;10.60;99.90;;;;;;5057756;28;20417;-71
2022/11/15 05:31:16;;;;;;;8.07;4.38;;;10.70;99.90;;;;;;5057771;28;20025;-71
2022/11/15 05:33:44;;;;;;;9.60;4.60;;;10.80;99.90;;;;;;5057581;28;20070;-71
2022/11/15 05:36:11;;;;;;;7.50;4.10;;;10.90;99.90;;;;;;5058393;28;20029;-71
2022/11/15 05:38:39;;;;;;;7.25;5.03;;;11.00;99.90;;;;;;5040042;28;20028;-71
2022/11/15 05:41:07;;;;;;;9.23;3.95;;;11.10;99.90;;;;;;5039871;28;20413;-71
2022/11/15 05:43:37;;;;;;;6.65;4.07;;;11.20;99.90;;;;;;5058034;28;20294;-71
2022/11/15 05:46:05;;;;;;;8.65;4.20;;;11.30;99.90;;;;;;5057980;28;20055;-71
2022/11/15 05:48:35;;;;;;;9.07;4.82;;;11.40;99.90;;;;;;5057632;28;20021;-71
2022/11/15 05:51:04;;;;;;;8.57;3.92;;;11.40;99.90;;;;;;5057657;28;20025;-71
2022/11/15 05:53:32;;;;;;;6.13;4.00;;;11.40;99.90;;;;;;5057745;28;20086;-71
2022/11/15 05:56:00;;;;;;;8.90;4.47;;;11.50;99.90;;;;;;5057501;28;20405;-71
2022/11/15 05:58:27;;;;;;;7.60;4.13;;;11.40;99.90;;;;;;5057429;28;20435;-71
2022/11/15 06:00:55;;;;;;;7.47;4.10;;;11.40;99.90;;;;;;5057151;28;20021;-71
2022/11/15 06:03:22;;;;;;;6.38;4.28;;;11.30;99.90;;;;;;5057340;28;20370;-71
2022/11/15 06:05:50;;;;;;;7.05;3.38;;;11.30;99.90;;;;;;5057106;28;20031;-71
2022/11/15 06:08:17;;;;;;;9.23;3.80;;;11.20;99.90;;;;;;5057732;28;20016;-71
2022/11/15 06:10:44;;;;;;;9.40;4.18;;;11.20;99.90;;;;;;5039302;28;20029;-71
2022/11/15 06:13:12;;;;;;;8.18;4.43;;;11.20;99.90;;;;;;5057439;28;20029;-71
2022/11/15 06:15:39;;;;;;;8.05;4.25;;;11.10;99.90;;;;;;5057157;28;20024;-71
2022/11/15 06:18:06;;;;;;;8.57;4.82;;;11.10;99.90;;;;;;5039243;28;20063;-71
2022/11/15 06:20:34;;;;;;;7.10;4.05;;;11.00;99.90;;;;;;5057388;28;20059;-71
2022/11/15 06:23:03;;;;;;;12.43;4.35;;;11.00;99.90;;;;;;5056973;28;20021;-71
2022/11/15 06:25:31;;;;;;;6.22;3.92;;;10.90;99.90;;;;;;5057275;28;20067;-71
2022/11/15 06:27:59;;;;;;;7.00;3.60;;;10.90;99.90;;;;;;5056889;28;20020;-72
2022/11/15 06:30:27;;;;;;;9.27;3.92;;;10.80;99.90;;;;;;5056703;28;20059;-72
2022/11/15 06:33:05;;;;;;;11.48;4.50;;;10.70;99.90;;;;;;5056623;28;20032;-71
2022/11/15 06:35:35;;;;;;;7.53;3.50;;;10.70;99.90;;;;;;5038970;28;20357;-73
2022/11/15 06:38:10;;;;;;;8.95;3.75;;;10.70;99.90;;;;;;5056790;28;20455;-78
2022/11/15 06:40:39;;;;;;;6.47;4.03;;;10.60;99.90;;;;;;5056972;28;20424;-75
2022/11/15 06:43:07;;;;;;;9.23;5.20;;;10.60;99.90;;;;;;5057091;28;20029;-75
2022/11/15 06:45:34;;;;;;;10.77;4.38;;;10.50;99.90;;;;;;5038771;28;20344;-79
2022/11/15 06:48:01;;;;;;;6.20;3.42;;;10.40;99.90;;;;;;5038556;28;20448;-76
2022/11/15 06:50:29;;;;;;;8.52;4.00;;;10.30;99.90;;;;;;5056426;28;20064;-75
2022/11/15 06:53:01;;;;;;;9.75;3.83;;;10.20;99.90;;;;;;5056502;28;20059;-75
2022/11/15 06:55:29;;;;;;;6.90;3.95;;;10.10;99.90;;;;;;5075366;28;20032;-75
2022/11/15 06:57:57;;;;;;;7.82;3.95;;;10.10;99.90;;;;;;5075557;28;20029;-74
2022/11/15 07:00:25;;;;;;;7.82;4.30;;;10.00;99.90;;;;;;5075333;28;20027;-76
2022/11/15 07:02:52;;;;;;;7.70;4.00;;;10.00;99.90;;;;;;5075305;28;20424;-75
2022/11/15 07:05:20;;;;;;;7.90;3.92;;;10.00;99.90;;;;;;5075286;28;20028;-76
2022/11/15 07:07:53;;;;;;;6.30;4.25;;;9.90;99.90;;;;;;5075462;28;20034;-76
2022/11/15 07:10:21;;;;;;;6.47;3.53;;;10.00;99.90;;;;;;5076865;28;20135;-74
2022/11/15 07:12:53;;;;;;;7.85;4.53;;;10.00;99.90;;;;;;5075177;28;20025;-73
2022/11/15 07:15:22;;;;;;;7.53;3.58;;;10.00;99.90;;;;;;5075191;28;20056;-72
2022/11/15 07:17:49;;;;;;;6.65;3.42;;;9.90;99.90;;;;;;5076353;28;20363;-70
2022/11/15 07:20:17;;;;;;;6.28;3.88;;;10.00;99.90;;;;;;5076231;28;20439;-70
2022/11/15 07:22:45;;;;;;;6.63;4.38;;;10.00;99.90;;;;;;5076273;28;20066;-70
2022/11/15 07:25:13;;;;;;;5.10;3.38;;;10.00;99.90;;;;;;5076238;28;20363;-69
2022/11/15 07:27:41;;;;;;;12.38;3.83;;;10.00;99.90;;;;;;5076217;28;20511;-70
2022/11/15 07:30:09;;;;;;;6.30;3.58;;;10.10;99.90;;;;;;5076692;28;20075;-71
2022/11/15 07:32:37;;;;;;;9.95;3.67;;;10.20;99.90;;;;;;5075935;28;20017;-72
2022/11/15 07:35:05;;;;;;;11.23;3.92;;;10.20;99.90;;;;;;5078599;28;20013;-71
2022/11/15 07:37:32;;;;;;;7.47;3.22;;;10.20;99.90;;;;;;5080142;28;20074;-71
2022/11/15 07:39:59;;;;;;;5.57;3.42;;;10.30;99.90;;;;;;5079778;28;20017;-71
2022/11/15 07:45:26;;;;;;;8.77;3.33;;;10.40;99.90;;;;;;5035025;28;20531;-71
2022/11/15 07:47:55;;;;;;;7.60;3.72;;;10.40;99.90;;;;;;5078782;28;20031;-70
2022/11/15 07:50:23;;;;;;;6.35;3.20;;;10.50;99.90;;;;;;5079721;28;20077;-69
2022/11/15 07:52:58;;;;;;;7.22;3.45;;;10.50;99.90;;;;;;5069695;28;20048;-69
2022/11/15 07:55:29;;;;;;;7.87;3.30;;;10.60;99.90;;;;;;5041850;28;20028;-69
2022/11/15 07:58:07;;;;;;;4.75;3.03;;;10.60;99.90;;;;;;5060113;28;20048;-70
2022/11/15 08:00:35;;;;;;;7.43;3.20;;;10.60;99.90;;;;;;5041765;28;20321;-70
2022/11/15 08:03:07;;;;;;;5.63;3.10;;;10.70;99.90;;;;;;5059558;28;20021;-70
2022/11/15 08:05:35;;;;;;;5.68;3.20;;;10.80;99.90;;;;;;5041606;28;20032;-70
2022/11/15 08:08:02;;;;;;;6.18;3.20;;;10.90;99.90;;;;;;5059561;28;20100;-70
2022/11/15 08:10:31;;;;;;;5.00;2.50;;;10.90;99.90;;;;;;5059298;28;20021;-70
2022/11/15 08:13:03;;;;;;;4.40;2.60;;;11.00;99.90;;;;;;5059165;28;20092;-70
2022/11/15 08:15:32;;;;;;;7.22;3.03;;;11.10;99.90;;;;;;5059791;28;20420;-71
2022/11/15 08:18:06;;;;;;;4.93;3.42;;;11.10;99.90;;;;;;5059278;28;20322;-71
2022/11/15 08:20:34;;;;;;;4.88;3.00;;;11.10;99.90;;;;;;5042870;28;20021;-70
2022/11/15 08:23:04;;;;;;;5.38;2.95;;;11.20;99.90;;;;;;5059689;28;20043;-71
2022/11/15 08:25:33;;;;;;;4.10;2.80;;;11.20;99.90;;;;;;5059035;28;20487;-70
2022/11/15 08:28:06;;;;;;;8.20;3.95;;;11.30;99.90;;;;;;5059196;28;20103;-71
2022/11/15 08:30:45;;;;;;;6.20;2.78;;;11.30;99.90;;;;;;5059522;28;20104;-70
2022/11/15 08:33:14;;;;;;;4.43;2.67;;;11.40;99.90;;;;;;5059319;28;20029;-74
2022/11/15 08:35:43;;;;;;;7.93;2.95;;;11.50;99.90;;;;;;5041177;28;20356;-69
2022/11/15 08:38:11;;;;;;;6.25;3.10;;;11.50;99.90;;;;;;5058956;28;20104;-69
2022/11/15 08:40:38;;;;;;;7.03;2.65;;;11.60;99.90;;;;;;5058727;28;20021;-69
2022/11/15 08:43:06;;;;;;;6.75;2.90;;;11.70;99.90;;;;;;5057593;28;20424;-68
2022/11/15 08:45:35;;;;;;;4.07;2.33;;;11.80;99.90;;;;;;5058879;28;20056;-70
2022/11/15 08:48:04;;;;;;;4.65;2.55;;;11.90;99.90;;;;;;5058928;28;20036;-70
2022/11/15 08:50:31;;;;;;;10.00;3.65;;;11.90;99.90;;;;;;5040832;28;20393;-70
2022/11/15 08:53:05;;;;;;;6.70;3.17;;;12.00;99.90;;;;;;5058756;28;20048;-73
2022/11/15 08:55:39;;;;;;;3.72;1.90;;;12.00;99.90;;;;;;5078529;28;20024;-71
2022/11/15 08:58:07;;;;;;;6.00;3.13;;;12.10;99.90;;;;;;5077562;28;20029;-72
2022/11/15 09:00:34;;;;;;;9.55;3.08;;;12.10;99.90;;;;;;5078448;28;20017;-72
2022/11/15 09:03:06;;;;;;;4.15;2.22;;;12.10;99.90;;;;;;5078649;28;20028;-72
2022/11/15 09:05:38;;;;;;;5.70;2.33;;;12.20;99.90;;;;;;5078369;28;20086;-72
2022/11/15 09:08:05;;;;;;;6.72;2.88;;;12.20;99.90;;;;;;5078477;28;20026;-70
2022/11/15 09:10:33;;;;;;;5.72;2.83;;;12.20;99.90;;;;;;5078743;28;20028;-71
2022/11/15 09:13:00;;;;;;;5.75;2.25;;;12.20;99.90;;;;;;5078101;28;20063;-71
2022/11/15 09:15:27;;;;;;;5.43;2.55;;;12.30;99.90;;;;;;5078131;28;20373;-72
2022/11/15 09:17:59;;;;;;;5.03;2.38;;;12.30;99.90;;;;;;5078019;28;20016;-72
2022/11/15 09:20:29;;;;;;;4.32;1.80;;;12.30;99.90;;;;;;5078287;28;20017;-72
2022/11/15 09:23:01;;;;;;;4.60;2.08;;;12.30;99.90;;;;;;5076879;28;20207;-72
2022/11/15 09:25:29;;;;;;;8.38;4.03;;;12.30;99.90;;;;;;5076839;28;20063;-72
2022/11/15 09:27:56;;;;;;;6.95;2.38;;;12.30;99.90;;;;;;5077933;28;20020;-72
2022/11/15 09:30:25;;;;;;;4.50;2.35;;;12.30;99.90;;;;;;5076754;28;20021;-72
2022/11/15 09:32:53;;;;;;;4.15;2.13;;;12.30;99.90;;;;;;5077379;28;20077;-72
2022/11/15 09:35:20;;;;;;;8.02;2.60;;;12.30;99.90;;;;;;5076529;28;20428;-72
2022/11/15 09:37:48;;;;;;;5.28;1.92;;;12.40;99.90;;;;;;5077660;28;20031;-69
2022/11/15 09:40:19;;;;;;;4.78;2.00;;;12.40;99.90;;;;;;5077625;28;20038;-70
2022/11/15 09:42:53;;;;;;;5.72;2.10;;;12.40;99.90;;;;;;5077731;28;20029;-71
2022/11/15 09:45:51;;;;;;;5.65;2.75;;;12.40;99.90;;;;;;5078045;28;20020;-70
2022/11/15 09:48:54;;;;;;;4.30;2.20;;;12.40;99.90;;;;;;5077409;28;20025;-70
2022/11/15 09:51:35;;;;;;;5.07;2.53;;;12.40;99.90;;;;;;5076288;28;20134;-70
2022/11/15 09:54:18;;;;;;;3.63;2.17;;;12.50;99.90;;;;;;5058066;28;20072;-70
2022/11/15 09:56:45;;;;;;;3.08;2.15;;;12.50;99.90;;;;;;5056751;28;20013;-70
2022/11/15 09:59:16;;;;;;;5.72;2.00;;;12.50;99.90;;;;;;5057218;28;20028;-71
2022/11/15 10:02:13;;;;;;;4.47;2.22;;;12.50;99.90;;;;;;5057677;28;20013;-69
2022/11/15 10:04:40;;;;;;;;;;;12.50;99.90;;;;;;5057826;28;20070;-70
2022/11/15 10:07:24;;;;;;;5.72;2.03;;;12.60;99.90;;;;;;5057368;28;19904;-69
2022/11/15 10:10:10;;;;;;;3.75;2.03;;;12.60;99.90;;;;;;5057080;28;20044;-69
2022/11/15 10:12:38;;;;;;;4.57;2.03;;;12.60;99.90;;;;;;5057087;28;20298;-69
2022/11/15 10:15:16;;;;;;;4.00;2.05;;;12.60;99.90;;;;;;5056998;28;20251;-69
2022/11/15 10:18:18;;;;;;;14.38;3.90;;;12.60;99.90;;;;;;5057502;28;20025;-69
2022/11/15 10:20:59;;;;;;;4.00;2.38;;;12.60;99.90;;;;;;5056853;28;20096;-69
2022/11/15 10:23:28;;;;;;;4.35;2.45;;;12.70;99.90;;;;;;5057015;28;20029;-69
2022/11/15 10:25:58;;;;;;;6.78;4.05;;;12.70;99.90;;;;;;5056833;28;20024;-70
2022/11/15 10:28:32;;;;;;;7.43;2.50;;;12.80;99.90;;;;;;5057344;28;20025;-69
2022/11/15 10:31:07;;;;;;;7.97;2.70;;;12.80;99.90;;;;;;5056716;28;20374;-69
2022/11/15 10:33:39;;;;;;;3.30;1.67;;;12.80;99.90;;;;;;5057021;28;20025;-69
2022/11/15 10:36:09;;;;;;;3.60;2.03;;;12.90;99.90;;;;;;5056663;28;20443;-69
2022/11/15 10:38:49;;;;;;;4.40;2.03;;;12.90;99.90;;;;;;5057184;28;20029;-69
2022/11/15 10:41:34;;;;;;;3.15;1.85;;;12.90;99.90;;;;;;5056834;28;20024;-69
2022/11/15 10:44:25;;;;;;;4.15;1.88;;;13.00;99.90;;;;;;5057125;28;20373;-69
2022/11/15 10:46:55;;;;;;;3.28;1.92;;;13.00;99.90;;;;;;5039025;28;20153;-69
2022/11/15 10:49:34;;;;;;;3.65;2.00;;;13.00;99.90;;;;;;5057073;28;20036;-69
2022/11/15 10:52:21;;;;;;;3.30;2.03;;;13.00;99.90;;;;;;5056391;28;20035;-70
2022/11/15 10:55:08;;;;;;;4.32;1.83;;;13.00;99.90;;;;;;5056470;28;20077;-69
2022/11/15 10:57:39;;;;;;;4.93;2.03;;;13.00;99.90;;;;;;5057173;28;20055;-69
2022/11/15 11:00:21;;;;;;;5.78;3.55;;;13.00;99.90;;;;;;5056384;28;20025;-69
2022/11/15 11:03:07;;;;;;;2.78;1.88;;;13.00;99.90;;;;;;5056607;28;20025;-69
2022/11/15 11:05:38;;;;;;;4.10;1.88;;;13.00;99.90;;;;;;5056393;28;20104;-69
2022/11/15 11:08:10;;;;;;;2.63;1.48;;;13.00;99.90;;;;;;5056881;28;20032;-69
2022/11/15 11:10:39;;;;;;;3.92;1.83;;;13.00;99.90;;;;;;5060984;28;20044;-69
2022/11/15 11:13:27;;;;;;;4.75;1.80;;;13.00;99.90;;;;;;5060644;28;20025;-69
2022/11/15 11:16:14;;;;;;;4.70;2.15;;;12.90;99.90;;;;;;5060898;28;20021;-69
2022/11/15 11:19:00;;;;;;;4.00;2.08;;;12.90;99.90;;;;;;5042719;28;20021;-69
2022/11/15 11:21:47;;;;;;;4.20;1.88;;;12.90;99.90;;;;;;5060817;28;20025;-69
2022/11/15 11:24:45;;;;;;;4.35;1.90;;;12.90;99.90;;;;;;5060218;28;20021;-69
2022/11/15 11:27:38;;;;;;;3.42;1.70;;;12.90;99.90;;;;;;5060330;28;20021;-69
2022/11/15 11:30:20;;;;;;;2.92;1.70;;;13.00;99.90;;;;;;5041853;28;20044;-69
2022/11/15 11:32:53;;;;;;;3.33;1.77;;;13.10;99.90;;;;;;5059944;28;20021;-69
2022/11/15 11:35:35;;;;;;;4.85;1.60;;;13.10;99.90;;;;;;5060500;28;20052;-69
2022/11/15 11:38:29;;;;;;;3.33;1.65;;;13.10;99.90;;;;;;5060685;28;20406;-69
2022/11/15 11:41:17;;;;;;;4.00;1.88;;;13.20;99.90;;;;;;5060429;28;20439;-69
2022/11/15 11:44:13;;;;;;;5.85;3.42;;;13.20;99.90;;;;;;5060129;28;20383;-69
2022/11/15 11:46:47;;;;;;;4.33;1.60;;;13.30;99.90;;;;;;5059944;28;20441;-69
2022/11/15 11:49:44;;;;;;;3.17;1.75;;;13.30;99.90;;;;;;5043342;28;20275;-69
2022/11/15 11:52:44;;;;;;;4.93;1.52;;;13.30;99.90;;;;;;5055996;28;20503;-69
2022/11/15 11:55:31;;;;;;;5.15;1.95;;;13.30;99.90;;;;;;5059648;28;20044;-69
2022/11/15 11:58:20;;;;;;;2.42;1.30;;;13.30;99.90;;;;;;5060602;28;20305;-69
2022/11/15 12:00:56;;;;;;;5.28;1.70;;;13.30;99.90;;;;;;5041844;28;20021;-69
2022/11/15 12:03:46;;;;;;;3.42;1.63;;;13.30;99.90;;;;;;5059453;28;20425;-69
2022/11/15 12:06:25;;;;;;;4.15;1.52;;;13.20;99.90;;;;;;5058313;28;20124;-69
2022/11/15 12:08:59;;;;;;;3.13;1.55;;;13.30;99.90;;;;;;5059437;28;20028;-69
2022/11/15 12:11:53;;;;;;;4.50;1.92;;;13.40;99.90;;;;;;5041611;28;20036;-69
2022/11/15 12:14:31;;;;;;;3.95;1.50;;;13.40;99.90;;;;;;5059799;28;20025;-69
2022/11/15 12:16:59;;;;;;;2.63;1.35;;;13.40;99.90;;;;;;5059703;28;20029;-69
2022/11/15 12:19:28;;;;;;;3.15;1.42;;;13.30;99.90;;;;;;5059052;28;20363;-69
2022/11/15 12:22:13;;;;;;;2.03;1.30;;;13.30;99.90;;;;;;5058691;28;20028;-69
2022/11/15 12:25:00;;;;;;;2.33;1.30;;;13.30;99.90;;;;;;5060301;28;20428;-69
2022/11/15 12:27:49;;;;;;;2.22;1.33;;;13.30;99.90;;;;;;5059042;28;20547;-69
2022/11/15 12:30:19;;;;;;;2.92;1.40;;;13.30;99.90;;;;;;5059211;28;20075;-69
2022/11/15 12:32:57;;;;;;;4.05;1.52;;;13.30;99.90;;;;;;5041196;28;20033;-69
2022/11/15 12:35:42;;;;;;;2.15;1.23;;;13.30;99.90;;;;;;5059401;28;20096;-69
2022/11/15 12:38:33;;;;;;;2.83;1.60;;;13.30;99.90;;;;;;5059384;28;20017;-69
2022/11/15 12:41:15;;;;;;;4.47;2.33;;;13.40;99.90;;;;;;5058697;28;20017;-69
2022/11/15 12:43:47;;;;;;;3.50;1.55;;;13.40;99.90;;;;;;5058931;28;20450;-69
2022/11/15 12:46:31;;;;;;;2.80;1.50;;;13.40;99.90;;;;;;5058661;28;20115;-69
2022/11/15 12:49:22;;;;;;;3.15;1.70;;;13.40;99.90;;;;;;5059111;28;20357;-69
2022/11/15 12:52:05;;;;;;;4.65;1.70;;;13.40;99.90;;;;;;5058805;28;20025;-70
2022/11/15 12:54:41;;;;;;;2.67;1.52;;;13.30;99.90;;;;;;5059069;28;20413;-69
2022/11/15 12:57:09;;;;;;;3.03;1.90;;;13.40;99.90;;;;;;5059033;28;20100;-69
2022/11/15 12:59:58;;;;;;;2.65;1.40;;;13.40;99.90;;;;;;5058980;28;20021;-69
2022/11/15 13:02:45;;;;;;;3.72;1.98;;;13.40;99.90;;;;;;5058405;28;20099;-69
2022/11/15 13:05:19;;;;;;;2.78;1.50;;;13.40;99.90;;;;;;5040636;28;20029;-69
2022/11/15 13:07:46;;;;;;;4.40;1.48;;;13.40;99.90;;;;;;5058841;28;20032;-69
2022/11/15 13:10:14;;;;;;;5.55;1.80;;;13.40;99.90;;;;;;5058485;28;20328;-69
2022/11/15 13:12:47;;;;;;;3.97;2.15;;;13.40;99.90;;;;;;5058757;28;20048;-71
2022/11/15 13:15:15;;;;;;;2.50;1.27;;;13.50;99.90;;;;;;5058773;28;20101;-71
2022/11/15 13:17:49;;;;;;;3.33;1.33;;;13.50;99.90;;;;;;5040385;28;20047;-71
2022/11/15 13:20:19;;;;;;;5.40;1.42;;;13.50;99.90;;;;;;5058029;28;20036;-71
2022/11/15 13:23:01;;;;;;;6.82;1.50;;;13.60;99.90;;;;;;5058291;28;20113;-71
2022/11/15 13:25:56;;;;;;;4.38;1.45;;;13.60;99.90;;;;;;5058473;28;20417;-71
2022/11/15 13:28:37;;;;;;;3.03;1.40;;;13.60;99.90;;;;;;5058204;28;20028;-69
2022/11/15 13:31:43;;;;;;;2.92;1.45;;;13.60;99.90;;;;;;5039832;28;20029;-71
2022/11/15 13:34:32;;;;;;;6.03;1.73;;;13.70;99.90;;;;;;5039878;28;20104;-69
2022/11/15 13:37:01;;;;;;;3.67;1.92;;;13.70;99.90;;;;;;5058154;28;20017;-69
2022/11/15 13:39:34;;;;;;;3.03;1.70;;;13.80;99.90;;;;;;5058207;28;20021;-71